Terminal Aerodrome Forecast
Issued by NWS

Home | Current Version | Previous Version | Text Only | Print | Product List | Glossary On
Versions: 1 2 3 4 5 6 7 8 9 10 11 12 13 14 15 16 17
000
FTAK31 PAJN 280600 AAA
TAFASI
TAF AMD
PASI 280619Z 2806/2906 29005KT P6SM -SHRA SCT020 BKN040 OVC060
      TEMPO 2806/2810 6SM -SHRA BR BKN015 OVC030
     FM281200 VRB03KT P6SM -SHRA SCT025 OVC050
     FM281800 12006KT P6SM -RA BKN040 OVC060
     FM282100 14008KT P6SM -RA BKN025 OVC050
     FM290300 18006KT P6SM -RA SCT020 OVC040=

USA.gov is the U.S. government's official web portal to all federal, state and local government web resources and services.